Awans, Belgium
Current Conditions -  °F | °C
As of 9:50 AM on Wednesday 28 Jan 2015 (Local Time) from EBLG Reporting Station
Broken Clouds Broken Clouds  
Wind Chill: 30°   Ceiling: 3700
Heat Index: 39°   Visibility: 6mi
Dew Point: 36°   Wind: 17mph
Humidity: 87%   Direction: 200°SSW
Pressure: 29.88"   Gusts: NA
Location:  50.67°N, 5.46°E
Report Text: EBLG 280850Z 20015KT 9999 SCT011 BKN037 04/02 Q1012 NOSIG
Loading
Personal Weather Stations






























Interactive Weather Map New forecast layout! Learn more

10-Day Weather Forecast

Advertisements
Track Severe Weather on mobile